Time;durP1;ratioP1;P1;durP2;ratioP2;P2;SDS_P1;SDS_P2;PMS_P1;PMS_P2;Temp;Humidity;BMP_temperature;BMP_pressure;BME280_temperature;BME280_humidity;BME280_pressure;Samples;Min_cycle;Max_cycle;Signal;HPM_P1;HPM_P2
2023/03/23 00:00:56;;;;;;;6.22;3.08;;;;;;;10.78;100.00;100204.66;5072753;28;20067;-83
2023/03/23 00:03:22;;;;;;;8.98;4.10;;;;;;;10.78;100.00;100203.81;5077254;28;20089;-84
2023/03/23 00:05:50;;;;;;;4.68;3.60;;;;;;;10.78;100.00;100204.66;5082862;28;20044;-84
2023/03/23 00:08:22;;;;;;;5.53;3.38;;;;;;;10.78;100.00;100180.75;5070116;28;20048;-84
2023/03/23 00:10:52;;;;;;;5.07;3.42;;;;;;;10.77;100.00;100176.38;5065375;28;20029;-83
2023/03/23 00:13:19;;;;;;;6.22;3.20;;;;;;;10.78;100.00;100183.41;5067314;28;20040;-84
2023/03/23 00:15:48;;;;;;;3.42;3.13;;;;;;;10.77;100.00;100200.28;5071256;28;20028;-84
2023/03/23 00:18:21;;;;;;;6.00;3.55;;;;;;;10.79;100.00;100206.34;5061879;28;20039;-84
2023/03/23 00:20:56;;;;;;;6.15;3.40;;;;;;;10.82;100.00;100192.75;5076068;28;20127;-84
2023/03/23 00:23:24;;;;;;;6.20;3.78;;;;;;;10.81;100.00;100183.13;5068936;28;20029;-84
2023/03/23 00:25:52;;;;;;;6.53;3.70;;;;;;;10.83;100.00;100183.81;5073837;28;20032;-84
2023/03/23 00:28:24;;;;;;;6.28;3.40;;;;;;;10.84;100.00;100198.81;5081665;28;20086;-84
2023/03/23 00:30:56;;;;;;;5.03;3.63;;;;;;;10.83;100.00;100199.75;5071383;28;20049;-84
2023/03/23 00:33:23;;;;;;;9.50;3.90;;;;;;;10.84;100.00;100197.94;5075712;28;20040;-83
2023/03/23 00:35:49;;;;;;;5.80;3.70;;;;;;;10.85;100.00;100211.09;5083598;28;20020;-84
2023/03/23 00:38:14;;;;;;;5.28;3.40;;;;;;;10.85;100.00;100204.94;5082640;28;20035;-84
2023/03/23 00:40:39;;;;;;;5.78;3.53;;;;;;;10.85;100.00;100203.13;5061901;28;20017;-84
2023/03/23 00:43:04;;;;;;;4.70;3.60;;;;;;;10.86;100.00;100201.31;5078496;28;20066;-84
2023/03/23 00:45:30;;;;;;;4.20;3.38;;;;;;;10.84;100.00;100188.19;5066041;28;20032;-84
2023/03/23 00:47:56;;;;;;;4.53;3.47;;;;;;;10.85;100.00;100179.22;5069336;28;20025;-84
2023/03/23 00:50:22;;;;;;;4.57;3.58;;;;;;;10.87;100.00;100174.59;5076984;28;20056;-84
2023/03/23 00:52:49;;;;;;;5.95;3.70;;;;;;;10.82;100.00;100171.50;5067951;28;20025;-84
2023/03/23 00:55:14;;;;;;;7.03;3.72;;;;;;;10.85;100.00;100184.53;5059470;28;20036;-84
2023/03/23 00:57:40;;;;;;;5.60;3.45;;;;;;;10.85;100.00;100189.84;5058338;28;20457;-85
2023/03/23 01:00:10;;;;;;;5.07;3.50;;;;;;;10.84;100.00;100180.22;5079125;28;20045;-84
2023/03/23 01:02:36;;;;;;;5.15;3.75;;;;;;;10.80;100.00;100149.56;5075670;28;20029;-84
2023/03/23 01:05:03;;;;;;;5.93;4.00;;;;;;;10.81;100.00;100150.38;5066759;28;20021;-84
2023/03/23 01:07:30;;;;;;;5.70;4.10;;;;;;;10.81;100.00;100153.03;5079134;28;20033;-84
2023/03/23 01:09:57;;;;;;;6.43;4.30;;;;;;;10.79;100.00;100147.03;5062305;28;20028;-84
2023/03/23 01:12:24;;;;;;;4.65;3.80;;;;;;;10.77;100.00;100152.47;5069317;28;20035;-84
2023/03/23 01:14:50;;;;;;;4.30;3.90;;;;;;;10.79;100.00;100128.44;5079870;28;20017;-84
2023/03/23 01:17:15;;;;;;;6.43;3.83;;;;;;;10.82;100.00;100123.69;5080674;28;20028;-84
2023/03/23 01:19:42;;;;;;;6.38;4.10;;;;;;;10.83;100.00;100130.69;5082064;28;20502;-84
2023/03/23 01:22:07;;;;;;;5.55;3.75;;;;;;;10.84;100.00;100126.22;5081012;28;20036;-84
2023/03/23 01:24:32;;;;;;;4.40;3.80;;;;;;;10.84;100.00;100132.38;5070933;28;20024;-84
2023/03/23 01:27:01;;;;;;;5.55;4.38;;;;;;;10.86;100.00;100137.56;5073527;28;20028;-84
2023/03/23 01:29:26;;;;;;;4.18;3.72;;;;;;;10.87;100.00;100132.09;5080362;28;20048;-84
2023/03/23 01:31:52;;;;;;;4.53;3.63;;;;;;;10.86;100.00;100127.78;5082326;28;20167;-84
2023/03/23 01:34:17;;;;;;;4.75;3.65;;;;;;;10.87;100.00;100116.16;5069513;28;20024;-84
2023/03/23 01:36:42;;;;;;;5.30;4.07;;;;;;;10.86;100.00;100122.47;5058324;28;20032;-84
2023/03/23 01:39:08;;;;;;;5.78;3.90;;;;;;;10.87;100.00;100125.94;5070651;28;20039;-84
2023/03/23 01:41:35;;;;;;;5.97;3.88;;;;;;;10.87;100.00;100113.50;5083036;28;20383;-84
2023/03/23 01:44:01;;;;;;;6.07;3.75;;;;;;;10.94;100.00;100129.72;5079724;28;20365;-84
2023/03/23 01:46:29;;;;;;;6.65;3.88;;;;;;;10.95;100.00;100135.91;5066308;28;20045;-84
2023/03/23 01:49:34;;;;;;;4.25;3.72;;;;;;;10.96;100.00;100137.56;5077072;28;20028;-84
2023/03/23 01:52:03;;;;;;;6.53;3.70;;;;;;;10.95;100.00;100131.41;5067815;28;20392;-84
2023/03/23 01:54:29;;;;;;;9.00;4.13;;;;;;;10.93;100.00;100117.44;5079410;28;20028;-84
2023/03/23 01:57:10;;;;;;;4.03;3.63;;;;;;;10.93;100.00;100115.59;5078326;28;20074;-84
2023/03/23 01:59:37;;;;;;;4.93;3.60;;;;;;;10.98;100.00;100112.53;5064850;28;20028;-84
2023/03/23 02:02:04;;;;;;;3.95;3.45;;;;;;;10.94;100.00;100095.19;5070543;28;20024;-84
2023/03/23 02:04:30;;;;;;;7.65;4.45;;;;;;;10.96;100.00;100101.22;5077158;28;20027;-84
2023/03/23 02:06:57;;;;;;;5.57;3.88;;;;;;;11.01;100.00;100087.53;5077533;28;20024;-84
2023/03/23 02:09:25;;;;;;;4.75;3.80;;;;;;;11.01;100.00;100091.00;5074968;28;20036;-84
2023/03/23 02:11:51;;;;;;;5.05;3.92;;;;;;;11.02;100.00;100083.88;5072865;28;20033;-84
2023/03/23 02:14:17;;;;;;;6.53;3.75;;;;;;;10.99;100.00;100081.47;5075450;28;20108;-84
2023/03/23 02:17:00;;;;;;;7.25;3.70;;;;;;;11.04;100.00;100082.75;5079471;28;20190;-84
2023/03/23 02:19:44;;;;;;;7.32;3.80;;;;;;;11.09;100.00;100084.97;5081004;28;20028;-84
2023/03/23 02:22:12;;;;;;;3.60;3.28;;;;;;;11.10;100.00;100084.00;5079453;28;20027;-84
2023/03/23 02:24:48;;;;;;;6.10;3.67;;;;;;;11.06;100.00;100070.16;5074680;28;20025;-84
2023/03/23 02:27:47;;;;;;;4.65;3.58;;;;;;;11.14;100.00;100088.09;5076038;28;20035;-84
2023/03/23 02:30:33;;;;;;;4.78;3.22;;;;;;;11.14;100.00;100093.41;5074313;28;20063;-83
2023/03/23 02:33:27;;;;;;;6.93;3.45;;;;;;;11.17;100.00;100086.94;5079066;28;20041;-83
2023/03/23 02:35:55;;;;;;;5.40;3.40;;;;;;;11.14;100.00;100069.47;5075948;28;20058;-84
2023/03/23 02:38:32;;;;;;;5.05;3.75;;;;;;;11.16;100.00;100078.16;5073214;28;20021;-84
2023/03/23 02:41:01;;;;;;;5.03;3.50;;;;;;;11.16;100.00;100075.50;5065684;28;20028;-84
2023/03/23 02:43:34;;;;;;;4.78;3.75;;;;;;;11.16;100.00;100064.00;5082856;28;20059;-84
2023/03/23 02:46:01;;;;;;;5.93;3.63;;;;;;;11.20;100.00;100068.06;5080213;28;20035;-84
2023/03/23 02:48:30;;;;;;;6.05;3.70;;;;;;;11.24;100.00;100077.44;5079786;28;20028;-84
2023/03/23 02:50:57;;;;;;;;;;;;;;;11.28;100.00;100074.34;5076458;28;20021;-84
2023/03/23 02:53:25;;;;;;;7.82;3.58;;;;;;;11.24;100.00;100083.59;5065509;28;19917;-84
2023/03/23 02:55:54;;;;;;;3.88;3.45;;;;;;;11.29;100.00;100091.13;5080131;28;20080;-84
2023/03/23 02:58:21;;;;;;;;;;;;;;;11.32;100.00;100074.91;5069782;28;20098;-84
2023/03/23 03:00:49;;;;;;;4.78;3.50;;;;;;;11.34;100.00;100085.41;5080405;28;19912;-84
2023/03/23 03:03:21;;;;;;;3.78;3.05;;;;;;;11.34;100.00;100094.25;5071065;28;20031;-83
2023/03/23 03:06:23;;;;;;;4.82;3.63;;;;;;;11.38;100.00;100078.84;5077186;28;20071;-84
2023/03/23 03:09:06;;;;;;;5.90;3.80;;;;;;;11.37;100.00;100077.16;5071073;28;20029;-84
2023/03/23 03:11:33;;;;;;;4.85;3.65;;;;;;;11.38;100.00;100087.63;5078704;28;20048;-84
2023/03/23 03:14:10;;;;;;;3.72;3.42;;;;;;;11.39;100.00;100081.34;5080666;28;20032;-84
2023/03/23 03:16:51;;;;;;;3.60;3.30;;;;;;;11.39;100.00;100086.69;5077249;28;20028;-84
2023/03/23 03:19:29;;;;;;;5.00;3.55;;;;;;;11.39;100.00;100067.19;5071986;28;20054;-84
2023/03/23 03:21:57;;;;;;;5.43;3.85;;;;;;;11.41;100.00;100083.88;5074486;28;20028;-84
2023/03/23 03:24:25;;;;;;;5.97;3.72;;;;;;;11.41;100.00;100086.53;5065680;28;20029;-84
2023/03/23 03:26:57;;;;;;;3.88;3.47;;;;;;;11.38;100.00;100090.31;5078157;28;20046;-84
2023/03/23 03:29:26;;;;;;;6.45;3.38;;;;;;;11.37;100.00;100077.16;5079465;28;20407;-84
2023/03/23 03:31:55;;;;;;;5.68;3.35;;;;;;;11.36;100.00;100086.94;5074458;28;20033;-83
2023/03/23 03:34:23;;;;;;;4.47;3.70;;;;;;;11.35;100.00;100079.13;5073147;28;20067;-83
2023/03/23 03:36:50;;;;;;;6.10;3.67;;;;;;;11.38;100.00;100082.31;5078847;28;20025;-83
2023/03/23 03:39:17;;;;;;;5.28;3.35;;;;;;;11.38;100.00;100079.66;5078190;28;20024;-83
2023/03/23 03:41:43;;;;;;;7.18;3.45;;;;;;;11.36;100.00;100081.63;5070212;28;20024;-83
2023/03/23 03:44:08;;;;;;;5.22;3.35;;;;;;;11.38;100.00;100090.31;5077551;28;20025;-83
2023/03/23 03:46:35;;;;;;;3.20;2.90;;;;;;;11.37;100.00;100085.94;5075729;28;20031;-83
2023/03/23 03:49:02;;;;;;;5.72;3.20;;;;;;;11.38;99.96;100094.78;5059747;28;20440;-83
2023/03/23 03:51:30;;;;;;;4.43;3.30;;;;;;;11.37;99.04;100077.16;5077216;28;20032;-83
2023/03/23 03:53:56;;;;;;;6.88;3.15;;;;;;;11.39;98.78;100081.34;5074118;28;20040;-83
2023/03/23 03:56:22;;;;;;;6.68;2.92;;;;;;;11.35;98.85;100087.09;5056980;28;20017;-83
2023/03/23 03:58:49;;;;;;;5.70;3.22;;;;;;;11.35;98.92;100103.03;5058793;28;20063;-83
2023/03/23 04:01:15;;;;;;;9.43;3.33;;;;;;;11.34;98.78;100102.22;5056298;28;20025;-83
2023/03/23 04:03:41;;;;;;;9.73;3.53;;;;;;;11.33;98.30;100097.88;5059565;28;20070;-83
2023/03/23 04:06:09;;;;;;;6.72;2.97;;;;;;;11.31;98.95;100105.16;5080232;28;20044;-83
2023/03/23 04:08:35;;;;;;;10.18;2.78;;;;;;;11.30;98.37;100087.50;5094748;28;20029;-83
2023/03/23 04:11:01;;;;;;;6.68;2.90;;;;;;;11.29;97.76;100096.44;5085336;28;20033;-83
2023/03/23 04:13:26;;;;;;;6.18;2.70;;;;;;;11.33;97.77;100099.69;5066570;28;20047;-83
2023/03/23 04:15:52;;;;;;;6.68;2.65;;;;;;;11.32;97.23;100103.31;5077939;28;20029;-83
2023/03/23 04:18:18;;;;;;;8.05;2.75;;;;;;;11.32;96.73;100105.97;5073769;28;20029;-83
2023/03/23 04:20:47;;;;;;;6.30;2.70;;;;;;;11.31;96.88;100118.44;5074327;28;20056;-83
2023/03/23 04:23:13;;;;;;;6.85;2.75;;;;;;;11.29;97.10;100112.41;5072464;28;20151;-83
2023/03/23 04:25:40;;;;;;;7.82;2.83;;;;;;;11.29;96.46;100107.94;5069114;28;20044;-83
2023/03/23 04:28:05;;;;;;;6.90;2.58;;;;;;;11.29;96.89;100115.06;5072412;28;20490;-83
2023/03/23 04:30:31;;;;;;;8.30;2.55;;;;;;;11.28;96.77;100110.75;5063430;28;20044;-83
2023/03/23 04:32:59;;;;;;;9.15;2.30;;;;;;;11.28;95.65;100116.88;5062397;28;20031;-83
2023/03/23 04:35:28;;;;;;;8.45;2.80;;;;;;;11.28;96.15;100124.88;5064261;28;20090;-83
2023/03/23 04:37:54;;;;;;;6.43;2.47;;;;;;;11.27;95.68;100115.22;5042177;28;20112;-83
2023/03/23 04:40:20;;;;;;;9.98;2.25;;;;;;;11.27;95.27;100112.56;5074427;28;20040;-83
2023/03/23 04:42:45;;;;;;;7.10;2.35;;;;;;;11.31;95.08;100137.06;5069589;28;20029;-83
2023/03/23 04:45:14;;;;;;;6.13;2.22;;;;;;;11.30;95.36;100122.91;5063796;28;20024;-83
2023/03/23 04:47:52;;;;;;;9.70;2.90;;;;;;;11.32;95.13;100125.41;5071140;28;20023;-83
2023/03/23 04:50:18;;;;;;;9.80;2.50;;;;;;;11.30;95.22;100125.56;5075958;28;20063;-83
2023/03/23 04:52:44;;;;;;;8.63;2.50;;;;;;;11.29;94.97;100118.56;5071891;28;20510;-83
2023/03/23 04:55:11;;;;;;;8.85;2.22;;;;;;;11.29;95.50;100126.56;5076871;28;20024;-83
2023/03/23 04:57:40;;;;;;;6.68;2.42;;;;;;;11.30;94.99;100130.03;5059644;28;20047;-83
2023/03/23 05:00:11;;;;;;;6.03;2.40;;;;;;;11.28;95.29;100124.03;5074108;28;20032;-83
2023/03/23 05:02:39;;;;;;;10.15;2.10;;;;;;;11.30;95.44;100130.88;5062357;28;20028;-83
2023/03/23 05:05:06;;;;;;;9.27;2.33;;;;;;;11.28;95.34;100122.19;5072794;28;20414;-83
2023/03/23 05:07:31;;;;;;;6.28;2.17;;;;;;;11.24;96.09;100128.78;5060960;28;20523;-83
2023/03/23 05:09:57;;;;;;;6.07;2.22;;;;;;;11.25;96.06;100129.63;5062335;28;20504;-83
2023/03/23 05:12:22;;;;;;;6.72;2.60;;;;;;;11.24;95.80;100136.78;5066520;28;20119;-83
2023/03/23 05:14:47;;;;;;;8.35;2.40;;;;;;;11.23;95.69;100129.75;5064709;28;20468;-83
2023/03/23 05:17:16;;;;;;;7.43;2.28;;;;;;;11.23;95.29;100119.13;5059994;28;20546;-83
2023/03/23 05:19:43;;;;;;;7.50;2.47;;;;;;;11.24;95.65;100130.59;5068115;28;20107;-83
2023/03/23 05:22:09;;;;;;;6.95;2.40;;;;;;;11.23;95.61;100127.09;5075250;28;20052;-83
2023/03/23 05:24:34;;;;;;;9.65;2.40;;;;;;;11.22;94.89;100130.72;5079916;28;20029;-83
2023/03/23 05:27:00;;;;;;;10.38;2.45;;;;;;;11.25;94.54;100129.63;5069666;28;20067;-83
2023/03/23 05:29:26;;;;;;;7.30;3.10;;;;;;;11.24;94.55;100139.44;5071759;28;20120;-83
2023/03/23 05:31:52;;;;;;;9.10;2.50;;;;;;;11.24;95.06;100151.84;5061551;28;20033;-83
2023/03/23 05:34:18;;;;;;;9.85;2.60;;;;;;;11.23;95.32;100150.19;5061471;28;20508;-83
2023/03/23 05:36:44;;;;;;;7.65;2.53;;;;;;;11.20;95.55;100140.66;5067064;28;20032;-83
2023/03/23 05:39:12;;;;;;;4.25;1.77;;;;;;;11.13;95.90;100128.91;5080191;28;20084;-83
2023/03/23 05:41:38;;;;;;;6.95;2.33;;;;;;;11.15;96.46;100142.06;5069150;28;20052;-83
2023/03/23 05:44:04;;;;;;;7.28;2.35;;;;;;;11.09;96.78;100131.03;5071814;28;20051;-83
2023/03/23 05:46:29;;;;;;;7.80;2.40;;;;;;;11.09;96.82;100140.78;5072339;28;20032;-83
2023/03/23 05:48:55;;;;;;;5.50;2.28;;;;;;;11.08;96.89;100147.09;5078614;28;20062;-83
2023/03/23 05:51:20;;;;;;;10.18;2.17;;;;;;;11.03;97.17;100144.84;5074277;28;20032;-83
2023/03/23 05:53:47;;;;;;;9.73;2.60;;;;;;;11.05;97.31;100144.72;5075880;28;20040;-83
2023/03/23 05:56:12;;;;;;;9.45;2.22;;;;;;;11.03;97.52;100144.03;5065535;28;20107;-83
2023/03/23 05:58:38;;;;;;;8.77;2.28;;;;;;;11.02;97.76;100137.84;5073028;28;20025;-83
2023/03/23 06:01:07;;;;;;;7.53;2.63;;;;;;;11.03;97.25;100128.06;5073946;28;20426;-83
2023/03/23 06:03:35;;;;;;;7.85;2.50;;;;;;;11.01;97.56;100138.00;5069558;28;20039;-83
2023/03/23 06:06:01;;;;;;;10.43;2.60;;;;;;;11.01;97.28;100140.66;5076493;28;20107;-83
2023/03/23 06:08:26;;;;;;;11.45;2.53;;;;;;;11.01;97.01;100153.97;5066683;28;20029;-83
2023/03/23 06:10:51;;;;;;;9.10;2.45;;;;;;;11.04;96.61;100135.06;5076815;28;20029;-83
2023/03/23 06:13:17;;;;;;;10.48;2.45;;;;;;;11.05;96.49;100147.38;5061253;28;20021;-83
2023/03/23 06:15:42;;;;;;;9.73;2.95;;;;;;;11.05;96.23;100153.53;5070459;28;20120;-82
2023/03/23 06:18:08;;;;;;;10.60;2.40;;;;;;;11.04;96.96;100170.47;5070516;28;20033;-82
2023/03/23 06:20:35;;;;;;;9.88;2.85;;;;;;;11.06;96.03;100168.50;5064507;28;20086;-82
2023/03/23 06:23:00;;;;;;;8.65;2.58;;;;;;;11.05;96.20;100168.63;5080565;28;20024;-82
2023/03/23 06:25:26;;;;;;;8.52;2.28;;;;;;;11.06;95.90;100173.81;5080263;28;20162;-82
2023/03/23 06:27:52;;;;;;;11.15;2.70;;;;;;;11.07;95.77;100177.31;5081538;28;20135;-82
2023/03/23 06:30:18;;;;;;;6.28;2.47;;;;;;;11.09;95.21;100183.31;5074076;28;20040;-82
2023/03/23 06:32:46;;;;;;;13.98;2.92;;;;;;;11.10;94.54;100183.19;5050979;28;20098;-82
2023/03/23 06:35:12;;;;;;;8.52;2.90;;;;;;;11.11;95.08;100198.16;5079262;28;20032;-82
2023/03/23 06:37:37;;;;;;;11.73;2.78;;;;;;;11.11;95.01;100192.00;5076127;28;20059;-82
2023/03/23 06:40:06;;;;;;;9.32;2.60;;;;;;;11.11;94.83;100198.16;5070761;28;20051;-82
2023/03/23 06:42:32;;;;;;;7.10;2.50;;;;;;;11.14;94.35;100194.41;5076076;28;20090;-82
2023/03/23 06:44:58;;;;;;;8.73;2.78;;;;;;;11.14;94.48;100205.03;5075013;28;20123;-82
2023/03/23 06:47:24;;;;;;;8.18;2.38;;;;;;;11.15;94.54;100208.53;5077476;28;20523;-82
2023/03/23 06:49:49;;;;;;;8.57;2.38;;;;;;;11.13;94.63;100211.31;5079629;28;20055;-82
2023/03/23 06:52:15;;;;;;;6.72;2.20;;;;;;;11.15;93.85;100219.16;5062181;28;20037;-82
2023/03/23 06:54:40;;;;;;;8.02;2.53;;;;;;;11.17;94.34;100227.81;5065574;28;20033;-82
2023/03/23 06:57:06;;;;;;;9.23;2.40;;;;;;;11.15;94.71;100227.13;5078101;28;20040;-82
2023/03/23 06:59:31;;;;;;;8.60;2.70;;;;;;;11.12;94.99;100230.88;5069694;28;20064;-81
2023/03/23 07:01:57;;;;;;;7.80;2.38;;;;;;;11.14;95.96;100233.41;5068725;28;20076;-82
2023/03/23 07:04:23;;;;;;;7.18;2.15;;;;;;;11.10;96.74;100224.88;5069553;28;20473;-83
2023/03/23 07:06:48;;;;;;;7.15;2.35;;;;;;;11.07;97.67;100222.47;5063365;28;20032;-82
2023/03/23 07:09:14;;;;;;;10.07;2.78;;;;;;;11.02;98.98;100225.53;5065886;28;20135;-83
2023/03/23 07:11:41;;;;;;;8.38;2.90;;;;;;;10.95;100.00;100237.69;5070325;28;20170;-83
2023/03/23 07:14:07;;;;;;;6.25;2.40;;;;;;;10.88;100.00;100256.00;5060750;28;20033;-84
2023/03/23 07:16:32;;;;;;;11.10;3.00;;;;;;;10.82;100.00;100256.50;5072393;28;20498;-84
2023/03/23 07:18:59;;;;;;;5.63;2.35;;;;;;;10.77;100.00;100269.34;5080379;28;20112;-84
2023/03/23 07:21:24;;;;;;;11.13;3.05;;;;;;;10.68;100.00;100268.34;5076890;28;20025;-85
2023/03/23 07:23:50;;;;;;;8.32;3.00;;;;;;;10.64;100.00;100268.75;5077118;28;20066;-85
2023/03/23 07:26:18;;;;;;;9.82;3.03;;;;;;;10.59;100.00;100270.94;5075161;28;20024;-84
2023/03/23 07:28:45;;;;;;;11.13;2.78;;;;;;;10.47;100.00;100273.69;5075022;28;20068;-86
2023/03/23 07:31:11;;;;;;;9.25;2.75;;;;;;;10.41;100.00;100279.53;5076656;28;20070;-85
2023/03/23 07:33:37;;;;;;;9.20;2.33;;;;;;;10.38;100.00;100293.06;5070258;28;20040;-85
2023/03/23 07:36:06;;;;;;;5.13;2.45;;;;;;;10.29;100.00;100299.09;5057591;28;20070;-86
2023/03/23 07:38:31;;;;;;;5.35;1.70;;;;;;;10.15;100.00;100268.44;5041626;28;20114;-85
2023/03/23 07:40:57;;;;;;;3.40;1.45;;;;;;;10.05;100.00;100257.75;5081560;28;20131;-84
2023/03/23 07:43:24;;;;;;;4.70;1.52;;;;;;;9.94;100.00;100263.09;5067727;28;20523;-84
2023/03/23 07:45:50;;;;;;;5.35;1.63;;;;;;;9.89;100.00;100257.31;5068736;28;20111;-84
2023/03/23 07:48:16;;;;;;;9.70;1.95;;;;;;;9.87;100.00;100251.31;5067578;28;20115;-84
2023/03/23 07:50:42;;;;;;;3.40;1.60;;;;;;;9.86;100.00;100268.19;5063061;28;20444;-84
2023/03/23 07:53:07;;;;;;;5.07;1.70;;;;;;;9.86;100.00;100270.84;5073482;28;20028;-83
2023/03/23 07:55:33;;;;;;;5.40;1.90;;;;;;;9.87;100.00;100288.44;5078361;28;20028;-83
2023/03/23 07:57:58;;;;;;;2.90;1.73;;;;;;;9.81;100.00;100277.38;5074267;28;20562;-83
2023/03/23 08:00:24;;;;;;;6.63;2.03;;;;;;;9.84;100.00;100284.22;5070039;28;20047;-83
2023/03/23 08:02:53;;;;;;;4.88;1.70;;;;;;;9.80;100.00;100285.47;5069326;28;20048;-83
2023/03/23 08:05:18;;;;;;;5.93;1.73;;;;;;;9.77;100.00;100293.66;5073407;28;20021;-83
2023/03/23 08:07:47;;;;;;;3.55;1.30;;;;;;;9.77;100.00;100299.81;5057040;28;20047;-83
2023/03/23 08:10:14;;;;;;;4.13;1.53;;;;;;;9.72;100.00;100303.81;5051537;28;20403;-83
2023/03/23 08:12:42;;;;;;;4.57;1.48;;;;;;;9.69;100.00;100310.22;5072994;28;20415;-83
2023/03/23 08:15:15;;;;;;;4.22;1.70;;;;;;;9.66;100.00;100315.78;5074032;28;20032;-83
2023/03/23 08:17:41;;;;;;;3.92;1.45;;;;;;;9.61;100.00;100313.50;5074995;28;20093;-83
2023/03/23 08:20:12;;;;;;;4.78;1.75;;;;;;;9.65;100.00;100321.19;5069032;28;20042;-83
2023/03/23 08:22:40;;;;;;;4.72;1.70;;;;;;;9.58;100.00;100313.72;5074702;28;20412;-83
2023/03/23 08:25:07;;;;;;;4.05;1.50;;;;;;;9.61;100.00;100321.44;5063195;28;20021;-83
2023/03/23 08:27:33;;;;;;;5.82;1.50;;;;;;;9.54;100.00;100307.00;5073373;28;20115;-83
2023/03/23 08:29:59;;;;;;;6.93;1.77;;;;;;;9.53;100.00;100313.25;5070069;28;20209;-83
2023/03/23 08:32:25;;;;;;;5.20;1.33;;;;;;;9.51;100.00;100303.75;5086389;28;20029;-83
2023/03/23 08:34:50;;;;;;;6.30;1.60;;;;;;;9.46;100.00;100301.47;5082202;28;20033;-84
2023/03/23 08:37:16;;;;;;;2.70;1.40;;;;;;;9.55;100.00;100311.31;5083097;28;20050;-83
2023/03/23 08:39:42;;;;;;;4.78;1.50;;;;;;;9.50;100.00;100302.06;5072157;28;20058;-83
2023/03/23 08:42:08;;;;;;;4.13;1.80;;;;;;;9.48;100.00;100301.38;5065019;28;20460;-83
2023/03/23 08:44:34;;;;;;;3.85;1.48;;;;;;;9.52;100.00;100311.56;5080353;28;20037;-84
2023/03/23 08:47:00;;;;;;;4.95;1.40;;;;;;;9.57;100.00;100316.50;5077384;28;20032;-83
2023/03/23 08:49:25;;;;;;;4.63;1.55;;;;;;;9.57;100.00;100314.69;5079458;28;20020;-83
2023/03/23 08:51:51;;;;;;;3.40;1.30;;;;;;;9.60;100.00;100325.06;5080400;28;20188;-83
2023/03/23 08:54:16;;;;;;;3.88;1.38;;;;;;;9.64;100.00;100330.94;5065326;28;20062;-83
2023/03/23 08:56:42;;;;;;;3.55;1.33;;;;;;;9.60;100.00;100322.41;5076618;28;20051;-83
2023/03/23 08:59:07;;;;;;;5.28;1.65;;;;;;;9.65;100.00;100329.16;5069802;28;20041;-83
2023/03/23 09:01:33;;;;;;;4.55;1.50;;;;;;;9.68;100.00;100342.16;5070603;28;20027;-83
2023/03/23 09:03:58;;;;;;;6.78;1.63;;;;;;;9.67;100.00;100346.59;5082052;28;20032;-83
2023/03/23 09:06:23;;;;;;;3.88;1.30;;;;;;;9.66;100.00;100331.69;5076430;28;20025;-83
2023/03/23 09:08:49;;;;;;;5.60;1.80;;;;;;;9.69;100.00;100310.22;5067030;28;20498;-83
2023/03/23 09:11:15;;;;;;;3.72;1.50;;;;;;;9.78;100.00;100317.41;5059266;28;20029;-83
2023/03/23 09:13:41;;;;;;;4.72;1.65;;;;;;;9.85;100.00;100312.44;5048220;28;20068;-83
2023/03/23 09:16:07;;;;;;;3.75;1.35;;;;;;;9.95;100.00;100328.44;5073991;28;20029;-83
2023/03/23 09:18:33;;;;;;;3.40;1.58;;;;;;;9.95;100.00;100328.44;5068879;28;20426;-83
2023/03/23 09:20:59;;;;;;;6.72;2.25;;;;;;;10.00;100.00;100339.53;5070336;28;20021;-83
2023/03/23 09:23:25;;;;;;;7.32;1.92;;;;;;;10.00;100.00;100331.56;5075314;28;20107;-83
2023/03/23 09:25:53;;;;;;;3.88;1.85;;;;;;;9.99;100.00;100322.78;5057894;28;20082;-83
2023/03/23 09:28:19;;;;;;;3.47;1.73;;;;;;;10.02;100.00;100332.28;5075453;28;20025;-83
2023/03/23 09:30:47;;;;;;;3.47;1.83;;;;;;;10.04;100.00;100326.84;5061523;28;20048;-82
2023/03/23 09:33:13;;;;;;;4.40;1.90;;;;;;;10.05;100.00;100324.06;5086791;28;20035;-83
2023/03/23 09:35:42;;;;;;;3.80;1.92;;;;;;;10.09;100.00;100324.66;5071526;28;20399;-83
2023/03/23 09:38:12;;;;;;;3.22;1.70;;;;;;;10.18;100.00;100338.00;5066419;28;20047;-82
2023/03/23 09:41:02;;;;;;;3.70;1.67;;;;;;;10.31;100.00;100342.31;5078199;28;20064;-83
2023/03/23 09:43:30;;;;;;;4.13;1.83;;;;;;;10.44;100.00;100331.50;5080724;28;20059;-82
2023/03/23 09:46:39;;;;;;;2.75;2.00;;;;;;;10.61;100.00;100340.69;5069437;28;20100;-83
2023/03/23 09:49:21;;;;;;;3.17;1.80;;;;;;;10.81;100.00;100339.88;5079282;28;20086;-83
2023/03/23 09:51:51;;;;;;;4.05;1.73;;;;;;;11.00;100.00;100346.25;5077639;28;20090;-82
2023/03/23 09:54:26;;;;;;;3.78;1.90;;;;;;;11.22;100.00;100340.72;5079593;28;20440;-83
2023/03/23 09:56:52;;;;;;;5.93;1.80;;;;;;;11.46;100.00;100340.41;5076354;28;20067;-82
2023/03/23 09:59:30;;;;;;;6.88;2.17;;;;;;;11.73;100.00;100327.44;5048768;28;20048;-82
2023/03/23 10:02:04;;;;;;;2.50;1.55;;;;;;;11.91;100.00;100327.63;5072856;28;20037;-82
2023/03/23 10:04:45;;;;;;;6.03;2.08;;;;;;;12.10;100.00;100340.09;5078546;28;20051;-82
2023/03/23 10:07:17;;;;;;;6.25;2.22;;;;;;;12.36;100.00;100341.22;5078629;28;20052;-82
2023/03/23 10:09:46;;;;;;;6.20;2.00;;;;;;;12.57;98.97;100338.41;5077646;28;20027;-82
2023/03/23 10:12:56;;;;;;;5.35;1.90;;;;;;;12.74;95.93;100338.66;5084057;28;20127;-82
2023/03/23 10:15:27;;;;;;;6.30;1.70;;;;;;;13.11;97.58;100349.31;5073938;28;20048;-82
2023/03/23 10:18:11;;;;;;;4.53;1.83;;;;;;;13.28;92.88;100339.69;5070427;28;20040;-83
2023/03/23 10:20:46;;;;;;;7.18;2.30;;;;;;;13.53;93.89;100350.69;5074734;28;20056;-83
2023/03/23 10:23:53;;;;;;;7.70;2.10;;;;;;;13.74;91.23;100355.78;5074105;28;20037;-82
2023/03/23 10:26:40;;;;;;;5.88;2.00;;;;;;;14.02;90.75;100364.59;5075977;28;20048;-82
2023/03/23 10:29:14;;;;;;;4.78;1.88;;;;;;;14.16;87.25;100371.22;5063072;28;20067;-83
2023/03/23 10:31:46;;;;;;;5.47;1.95;;;;;;;14.21;86.06;100357.41;5057492;28;20037;-83
2023/03/23 10:34:17;;;;;;;8.77;2.28;;;;;;;14.22;84.58;100367.09;5082414;28;20448;-83
2023/03/23 10:37:02;;;;;;;5.78;2.40;;;;;;;14.27;86.52;100363.97;5075398;28;20044;-83
2023/03/23 10:39:34;;;;;;;4.55;2.15;;;;;;;14.23;84.55;100374.94;5080515;28;20029;-83
2023/03/23 10:42:06;;;;;;;6.25;1.98;;;;;;;14.20;83.20;100361.91;5069974;28;20099;-83
2023/03/23 10:44:33;;;;;;;6.57;2.33;;;;;;;14.26;86.12;100365.81;5067209;28;20472;-83
2023/03/23 10:47:00;;;;;;;5.82;2.20;;;;;;;14.40;84.32;100369.75;5077493;28;20040;-84
2023/03/23 10:49:33;;;;;;;5.63;2.20;;;;;;;14.54;82.57;100358.53;5075204;28;20415;-83
2023/03/23 10:52:11;;;;;;;6.90;1.95;;;;;;;14.63;82.64;100359.44;5072226;28;20032;-83
2023/03/23 10:54:46;;;;;;;5.50;1.88;;;;;;;14.77;81.34;100366.06;5086305;28;20043;-83
2023/03/23 10:57:24;;;;;;;5.50;1.90;;;;;;;14.97;82.39;100364.88;5089917;28;20081;-82
2023/03/23 10:59:50;;;;;;;5.35;2.25;;;;;;;15.03;80.22;100355.34;5077085;28;20146;-83
2023/03/23 11:02:23;;;;;;;6.43;1.85;;;;;;;15.14;81.12;100352.41;5077274;28;20104;-82
2023/03/23 11:05:01;;;;;;;8.07;2.05;;;;;;;15.31;81.20;100365.88;5079792;28;20032;-83
2023/03/23 11:07:32;;;;;;;7.13;1.90;;;;;;;15.36;76.76;100350.19;5072128;28;20037;-83
2023/03/23 11:10:08;;;;;;;5.60;1.95;;;;;;;15.40;76.97;100356.88;5070495;28;20025;-83
2023/03/23 11:12:34;;;;;;;8.25;2.13;;;;;;;15.45;75.22;100351.03;5067441;28;20098;-83
2023/03/23 11:15:23;;;;;;;4.90;1.98;;;;;;;15.59;78.71;100347.75;5072001;28;20056;-83
2023/03/23 11:17:58;;;;;;;;;;;;;;;15.69;79.75;100356.47;5076423;28;20055;-83
2023/03/23 11:20:26;;;;;;;7.85;1.90;;;;;;;15.60;74.42;100348.59;5073751;28;20008;-82
2023/03/23 11:22:52;;;;;;;7.70;2.15;;;;;;;15.52;72.43;100358.28;5066807;28;20055;-83
2023/03/23 11:25:17;;;;;;;5.03;1.70;;;;;;;15.58;72.21;100363.97;5071039;28;20485;-83
2023/03/23 11:27:43;;;;;;;4.28;1.50;;;;;;;15.62;71.54;100366.19;5064716;28;20045;-83
2023/03/23 11:30:24;;;;;;;5.63;1.70;;;;;;;15.59;70.94;100371.84;5074447;28;20040;-83